sensor_id;sensor_type;location;lat;lon;timestamp;P1;durP1;ratioP1;P2;durP2;ratioP2
63581;SDS011;49727;51.078;17.066;2023-02-13T00:12:37;17.70;;;9.43;;
63581;SDS011;49727;51.078;17.066;2023-02-13T00:27:38;18.25;;;8.00;;
63581;SDS011;49727;51.078;17.066;2023-02-13T00:42:38;12.15;;;6.72;;
63581;SDS011;49727;51.078;17.066;2023-02-13T00:57:38;13.10;;;6.47;;
63581;SDS011;49727;51.078;17.066;2023-02-13T01:12:39;17.15;;;6.53;;
63581;SDS011;49727;51.078;17.066;2023-02-13T01:27:39;11.52;;;6.90;;
63581;SDS011;49727;51.078;17.066;2023-02-13T01:42:40;10.82;;;5.47;;
63581;SDS011;49727;51.078;17.066;2023-02-13T01:57:40;11.70;;;5.78;;
63581;SDS011;49727;51.078;17.066;2023-02-13T02:28:24;13.40;;;4.95;;
63581;SDS011;49727;51.078;17.066;2023-02-13T02:59:00;11.20;;;5.63;;
63581;SDS011;49727;51.078;17.066;2023-02-13T03:14:24;15.02;;;5.70;;
63581;SDS011;49727;51.078;17.066;2023-02-13T03:44:56;10.32;;;5.35;;
63581;SDS011;49727;51.078;17.066;2023-02-13T04:00:24;9.80;;;5.38;;
63581;SDS011;49727;51.078;17.066;2023-02-13T04:15:45;12.50;;;6.22;;
63581;SDS011;49727;51.078;17.066;2023-02-13T04:30:56;10.82;;;5.75;;
63581;SDS011;49727;51.078;17.066;2023-02-13T04:45:56;14.07;;;7.07;;
63581;SDS011;49727;51.078;17.066;2023-02-13T05:00:57;13.65;;;7.45;;
63581;SDS011;49727;51.078;17.066;2023-02-13T05:15:57;15.88;;;9.32;;
63581;SDS011;49727;51.078;17.066;2023-02-13T05:30:58;12.18;;;5.93;;
63581;SDS011;49727;51.078;17.066;2023-02-13T05:46:02;14.57;;;5.35;;
63581;SDS011;49727;51.078;17.066;2023-02-13T06:01:06;15.85;;;7.00;;
63581;SDS011;49727;51.078;17.066;2023-02-13T06:16:07;11.75;;;6.30;;
63581;SDS011;49727;51.078;17.066;2023-02-13T06:31:08;11.75;;;5.60;;
63581;SDS011;49727;51.078;17.066;2023-02-13T06:46:09;13.07;;;6.50;;
63581;SDS011;49727;51.078;17.066;2023-02-13T07:01:09;13.38;;;5.40;;
63581;SDS011;49727;51.078;17.066;2023-02-13T07:16:09;12.00;;;5.53;;
63581;SDS011;49727;51.078;17.066;2023-02-13T07:31:10;12.65;;;6.85;;
63581;SDS011;49727;51.078;17.066;2023-02-13T07:46:11;12.73;;;5.72;;
63581;SDS011;49727;51.078;17.066;2023-02-13T08:01:13;20.75;;;8.30;;
63581;SDS011;49727;51.078;17.066;2023-02-13T08:16:14;17.73;;;7.47;;
63581;SDS011;49727;51.078;17.066;2023-02-13T08:31:16;20.90;;;8.60;;
63581;SDS011;49727;51.078;17.066;2023-02-13T08:46:17;24.02;;;9.73;;
63581;SDS011;49727;51.078;17.066;2023-02-13T09:01:18;21.73;;;9.38;;
63581;SDS011;49727;51.078;17.066;2023-02-13T09:16:18;20.98;;;9.15;;
63581;SDS011;49727;51.078;17.066;2023-02-13T09:31:19;17.08;;;7.05;;
63581;SDS011;49727;51.078;17.066;2023-02-13T09:46:22;5.80;;;2.67;;
63581;SDS011;49727;51.078;17.066;2023-02-13T10:16:39;6.53;;;1.87;;
63581;SDS011;49727;51.078;17.066;2023-02-13T10:31:48;5.50;;;2.40;;
63581;SDS011;49727;51.078;17.066;2023-02-13T11:02:22;3.37;;;1.97;;
63581;SDS011;49727;51.078;17.066;2023-02-13T11:17:27;3.63;;;2.13;;
63581;SDS011;49727;51.078;17.066;2023-02-13T11:32:31;4.97;;;2.60;;
63581;SDS011;49727;51.078;17.066;2023-02-13T12:02:46;4.90;;;2.33;;
63581;SDS011;49727;51.078;17.066;2023-02-13T12:17:52;4.97;;;2.30;;
63581;SDS011;49727;51.078;17.066;2023-02-13T12:48:25;7.63;;;2.67;;
63581;SDS011;49727;51.078;17.066;2023-02-13T13:03:44;7.32;;;3.67;;
63581;SDS011;49727;51.078;17.066;2023-02-13T13:34:05;5.37;;;2.00;;
63581;SDS011;49727;51.078;17.066;2023-02-13T14:04:37;4.50;;;2.60;;
63581;SDS011;49727;51.078;17.066;2023-02-13T14:19:40;8.05;;;3.30;;
63581;SDS011;49727;51.078;17.066;2023-02-13T14:34:54;6.03;;;3.50;;
63581;SDS011;49727;51.078;17.066;2023-02-13T14:49:58;5.30;;;3.03;;
63581;SDS011;49727;51.078;17.066;2023-02-13T15:05:10;7.53;;;3.50;;
63581;SDS011;49727;51.078;17.066;2023-02-13T15:20:23;7.43;;;4.10;;
63581;SDS011;49727;51.078;17.066;2023-02-13T15:35:27;6.43;;;4.15;;
63581;SDS011;49727;51.078;17.066;2023-02-13T15:50:31;7.20;;;4.40;;
63581;SDS011;49727;51.078;17.066;2023-02-13T16:20:39;10.10;;;6.25;;
63581;SDS011;49727;51.078;17.066;2023-02-13T16:35:44;15.40;;;7.30;;
63581;SDS011;49727;51.078;17.066;2023-02-13T16:50:53;17.83;;;8.95;;
63581;SDS011;49727;51.078;17.066;2023-02-13T17:05:54;19.17;;;9.80;;
63581;SDS011;49727;51.078;17.066;2023-02-13T17:21:00;15.63;;;9.32;;
63581;SDS011;49727;51.078;17.066;2023-02-13T17:36:02;19.42;;;9.55;;
63581;SDS011;49727;51.078;17.066;2023-02-13T17:51:03;18.27;;;9.33;;
63581;SDS011;49727;51.078;17.066;2023-02-13T18:06:04;16.10;;;8.63;;
63581;SDS011;49727;51.078;17.066;2023-02-13T18:21:04;12.73;;;7.45;;
63581;SDS011;49727;51.078;17.066;2023-02-13T18:36:05;12.95;;;7.85;;
63581;SDS011;49727;51.078;17.066;2023-02-13T18:51:05;10.32;;;6.63;;
63581;SDS011;49727;51.078;17.066;2023-02-13T19:06:07;14.55;;;8.15;;
63581;SDS011;49727;51.078;17.066;2023-02-13T19:21:09;13.97;;;8.13;;
63581;SDS011;49727;51.078;17.066;2023-02-13T19:36:11;14.77;;;6.68;;
63581;SDS011;49727;51.078;17.066;2023-02-13T19:51:17;11.32;;;6.72;;
63581;SDS011;49727;51.078;17.066;2023-02-13T20:06:21;10.40;;;5.87;;
63581;SDS011;49727;51.078;17.066;2023-02-13T20:21:26;11.63;;;6.68;;
63581;SDS011;49727;51.078;17.066;2023-02-13T20:36:28;11.65;;;6.72;;
63581;SDS011;49727;51.078;17.066;2023-02-13T20:51:30;13.85;;;7.78;;
63581;SDS011;49727;51.078;17.066;2023-02-13T21:06:34;16.85;;;8.85;;
63581;SDS011;49727;51.078;17.066;2023-02-13T21:21:35;19.55;;;9.43;;
63581;SDS011;49727;51.078;17.066;2023-02-13T21:36:37;16.08;;;8.43;;
63581;SDS011;49727;51.078;17.066;2023-02-13T21:51:38;20.15;;;9.50;;
63581;SDS011;49727;51.078;17.066;2023-02-13T22:06:38;17.95;;;8.75;;
63581;SDS011;49727;51.078;17.066;2023-02-13T22:21:39;18.33;;;9.90;;
63581;SDS011;49727;51.078;17.066;2023-02-13T22:36:40;19.40;;;9.55;;
63581;SDS011;49727;51.078;17.066;2023-02-13T22:51:41;19.35;;;9.60;;
63581;SDS011;49727;51.078;17.066;2023-02-13T23:06:42;16.20;;;7.88;;
63581;SDS011;49727;51.078;17.066;2023-02-13T23:21:42;15.55;;;8.48;;
63581;SDS011;49727;51.078;17.066;2023-02-13T23:36:42;14.75;;;8.27;;
63581;SDS011;49727;51.078;17.066;2023-02-13T23:51:43;16.15;;;7.93;;
